sensor_id;sensor_type;location;lat;lon;timestamp;P1;durP1;ratioP1;P2;durP2;ratioP2
20095;SDS011;10207;50.942;6.900;2023-11-21T00:02:07;18.08;;;10.88;;
20095;SDS011;10207;50.942;6.900;2023-11-21T00:04:33;19.17;;;10.98;;
20095;SDS011;10207;50.942;6.900;2023-11-21T00:06:59;19.33;;;10.82;;
20095;SDS011;10207;50.942;6.900;2023-11-21T00:09:25;20.13;;;11.65;;
20095;SDS011;10207;50.942;6.900;2023-11-21T00:11:50;19.17;;;10.50;;
20095;SDS011;10207;50.942;6.900;2023-11-21T00:14:16;22.40;;;11.75;;
20095;SDS011;10207;50.942;6.900;2023-11-21T00:16:42;20.77;;;10.77;;
20095;SDS011;10207;50.942;6.900;2023-11-21T00:19:08;22.80;;;11.98;;
20095;SDS011;10207;50.942;6.900;2023-11-21T00:21:34;31.58;;;12.85;;
20095;SDS011;10207;50.942;6.900;2023-11-21T00:24:00;22.70;;;12.43;;
20095;SDS011;10207;50.942;6.900;2023-11-21T00:26:26;20.55;;;12.68;;
20095;SDS011;10207;50.942;6.900;2023-11-21T00:29:00;26.13;;;14.38;;
20095;SDS011;10207;50.942;6.900;2023-11-21T00:31:26;28.45;;;14.50;;
20095;SDS011;10207;50.942;6.900;2023-11-21T00:33:52;25.90;;;13.95;;
20095;SDS011;10207;50.942;6.900;2023-11-21T00:36:18;23.85;;;14.20;;
20095;SDS011;10207;50.942;6.900;2023-11-21T00:38:45;27.08;;;15.88;;
20095;SDS011;10207;50.942;6.900;2023-11-21T00:41:10;23.52;;;15.65;;
20095;SDS011;10207;50.942;6.900;2023-11-21T00:43:36;31.73;;;16.67;;
20095;SDS011;10207;50.942;6.900;2023-11-21T00:46:05;27.13;;;16.33;;
20095;SDS011;10207;50.942;6.900;2023-11-21T00:48:33;30.95;;;17.83;;
20095;SDS011;10207;50.942;6.900;2023-11-21T00:50:59;31.60;;;17.20;;
20095;SDS011;10207;50.942;6.900;2023-11-21T00:53:25;35.95;;;17.65;;
20095;SDS011;10207;50.942;6.900;2023-11-21T00:55:52;26.02;;;17.17;;
20095;SDS011;10207;50.942;6.900;2023-11-21T00:58:25;27.20;;;16.65;;
20095;SDS011;10207;50.942;6.900;2023-11-21T01:00:51;26.95;;;17.35;;
20095;SDS011;10207;50.942;6.900;2023-11-21T01:03:17;29.88;;;18.05;;
20095;SDS011;10207;50.942;6.900;2023-11-21T01:05:43;32.38;;;18.48;;
20095;SDS011;10207;50.942;6.900;2023-11-21T01:08:09;30.67;;;17.88;;
20095;SDS011;10207;50.942;6.900;2023-11-21T01:10:36;33.15;;;18.85;;
20095;SDS011;10207;50.942;6.900;2023-11-21T01:13:02;36.22;;;19.15;;
20095;SDS011;10207;50.942;6.900;2023-11-21T01:15:31;32.55;;;19.05;;
20095;SDS011;10207;50.942;6.900;2023-11-21T01:17:57;33.67;;;17.85;;
20095;SDS011;10207;50.942;6.900;2023-11-21T01:20:23;33.35;;;18.42;;
20095;SDS011;10207;50.942;6.900;2023-11-21T01:22:49;32.20;;;18.13;;
20095;SDS011;10207;50.942;6.900;2023-11-21T01:25:15;36.30;;;17.63;;
20095;SDS011;10207;50.942;6.900;2023-11-21T01:27:42;28.83;;;18.30;;
20095;SDS011;10207;50.942;6.900;2023-11-21T01:30:09;35.45;;;17.85;;
20095;SDS011;10207;50.942;6.900;2023-11-21T01:32:36;39.08;;;19.05;;
20095;SDS011;10207;50.942;6.900;2023-11-21T01:35:03;30.45;;;18.42;;
20095;SDS011;10207;50.942;6.900;2023-11-21T01:37:31;38.83;;;18.65;;
20095;SDS011;10207;50.942;6.900;2023-11-21T01:39:57;30.10;;;19.10;;
20095;SDS011;10207;50.942;6.900;2023-11-21T01:42:23;34.53;;;18.27;;
20095;SDS011;10207;50.942;6.900;2023-11-21T01:44:49;35.78;;;19.65;;
20095;SDS011;10207;50.942;6.900;2023-11-21T01:47:15;32.25;;;19.42;;
20095;SDS011;10207;50.942;6.900;2023-11-21T01:49:43;29.40;;;17.55;;
20095;SDS011;10207;50.942;6.900;2023-11-21T01:52:09;31.23;;;20.15;;
20095;SDS011;10207;50.942;6.900;2023-11-21T01:54:36;36.70;;;20.50;;
20095;SDS011;10207;50.942;6.900;2023-11-21T01:57:03;33.40;;;23.20;;
20095;SDS011;10207;50.942;6.900;2023-11-21T01:59:35;35.17;;;21.70;;
20095;SDS011;10207;50.942;6.900;2023-11-21T02:02:03;31.77;;;18.90;;
20095;SDS011;10207;50.942;6.900;2023-11-21T02:04:31;32.00;;;18.48;;
20095;SDS011;10207;50.942;6.900;2023-11-21T02:06:57;30.75;;;18.90;;
20095;SDS011;10207;50.942;6.900;2023-11-21T02:09:26;37.97;;;19.35;;
20095;SDS011;10207;50.942;6.900;2023-11-21T02:11:53;32.17;;;16.60;;
20095;SDS011;10207;50.942;6.900;2023-11-21T02:14:20;28.08;;;16.88;;
20095;SDS011;10207;50.942;6.900;2023-11-21T02:16:51;27.38;;;16.75;;
20095;SDS011;10207;50.942;6.900;2023-11-21T02:19:17;26.52;;;16.92;;
20095;SDS011;10207;50.942;6.900;2023-11-21T02:21:45;32.42;;;16.70;;
20095;SDS011;10207;50.942;6.900;2023-11-21T02:24:12;33.53;;;17.23;;
20095;SDS011;10207;50.942;6.900;2023-11-21T02:26:37;31.48;;;17.30;;
20095;SDS011;10207;50.942;6.900;2023-11-21T02:29:03;37.58;;;17.60;;
20095;SDS011;10207;50.942;6.900;2023-11-21T02:31:30;32.55;;;17.48;;
20095;SDS011;10207;50.942;6.900;2023-11-21T02:33:58;33.28;;;16.27;;
20095;SDS011;10207;50.942;6.900;2023-11-21T02:36:25;31.50;;;18.17;;
20095;SDS011;10207;50.942;6.900;2023-11-21T02:38:51;34.80;;;17.23;;
20095;SDS011;10207;50.942;6.900;2023-11-21T02:41:17;33.92;;;17.02;;
20095;SDS011;10207;50.942;6.900;2023-11-21T02:43:43;34.83;;;17.75;;
20095;SDS011;10207;50.942;6.900;2023-11-21T02:46:09;29.05;;;16.83;;
20095;SDS011;10207;50.942;6.900;2023-11-21T02:48:35;33.30;;;17.92;;
20095;SDS011;10207;50.942;6.900;2023-11-21T02:51:01;28.90;;;16.65;;
20095;SDS011;10207;50.942;6.900;2023-11-21T02:53:28;32.63;;;17.17;;
20095;SDS011;10207;50.942;6.900;2023-11-21T02:55:54;30.15;;;16.30;;
20095;SDS011;10207;50.942;6.900;2023-11-21T02:58:20;34.83;;;17.60;;
20095;SDS011;10207;50.942;6.900;2023-11-21T03:00:45;30.42;;;17.75;;
20095;SDS011;10207;50.942;6.900;2023-11-21T03:03:11;26.30;;;16.40;;
20095;SDS011;10207;50.942;6.900;2023-11-21T03:05:37;29.08;;;17.60;;
20095;SDS011;10207;50.942;6.900;2023-11-21T03:08:04;32.55;;;18.13;;
20095;SDS011;10207;50.942;6.900;2023-11-21T03:10:30;33.22;;;19.25;;
20095;SDS011;10207;50.942;6.900;2023-11-21T03:12:56;31.52;;;19.25;;
20095;SDS011;10207;50.942;6.900;2023-11-21T03:15:23;32.30;;;18.48;;
20095;SDS011;10207;50.942;6.900;2023-11-21T03:17:49;33.95;;;18.33;;
20095;SDS011;10207;50.942;6.900;2023-11-21T03:20:15;33.47;;;18.42;;
20095;SDS011;10207;50.942;6.900;2023-11-21T03:22:42;40.75;;;19.95;;
20095;SDS011;10207;50.942;6.900;2023-11-21T03:25:07;34.25;;;19.00;;
20095;SDS011;10207;50.942;6.900;2023-11-21T03:27:36;37.30;;;20.55;;
20095;SDS011;10207;50.942;6.900;2023-11-21T03:30:02;34.75;;;19.23;;
20095;SDS011;10207;50.942;6.900;2023-11-21T03:32:29;36.05;;;19.75;;
20095;SDS011;10207;50.942;6.900;2023-11-21T03:34:55;32.60;;;19.60;;
20095;SDS011;10207;50.942;6.900;2023-11-21T03:37:24;38.25;;;19.42;;
20095;SDS011;10207;50.942;6.900;2023-11-21T03:39:56;38.58;;;20.42;;
20095;SDS011;10207;50.942;6.900;2023-11-21T03:42:22;36.30;;;19.23;;
20095;SDS011;10207;50.942;6.900;2023-11-21T03:44:48;34.88;;;19.75;;
20095;SDS011;10207;50.942;6.900;2023-11-21T03:47:14;33.72;;;20.63;;
20095;SDS011;10207;50.942;6.900;2023-11-21T03:49:40;31.02;;;19.05;;
20095;SDS011;10207;50.942;6.900;2023-11-21T03:52:06;37.08;;;20.35;;
20095;SDS011;10207;50.942;6.900;2023-11-21T03:54:33;36.42;;;20.23;;
20095;SDS011;10207;50.942;6.900;2023-11-21T03:56:59;31.75;;;20.17;;
20095;SDS011;10207;50.942;6.900;2023-11-21T03:59:25;36.35;;;20.52;;
20095;SDS011;10207;50.942;6.900;2023-11-21T04:01:51;42.90;;;22.00;;
20095;SDS011;10207;50.942;6.900;2023-11-21T04:04:17;42.58;;;20.45;;
20095;SDS011;10207;50.942;6.900;2023-11-21T04:06:43;38.85;;;20.38;;
20095;SDS011;10207;50.942;6.900;2023-11-21T04:09:09;40.83;;;20.92;;
20095;SDS011;10207;50.942;6.900;2023-11-21T04:11:35;38.88;;;20.92;;
20095;SDS011;10207;50.942;6.900;2023-11-21T04:14:00;47.55;;;21.23;;
20095;SDS011;10207;50.942;6.900;2023-11-21T04:16:26;49.88;;;21.15;;
20095;SDS011;10207;50.942;6.900;2023-11-21T04:18:52;37.47;;;21.35;;
20095;SDS011;10207;50.942;6.900;2023-11-21T04:21:18;42.78;;;20.92;;
20095;SDS011;10207;50.942;6.900;2023-11-21T04:23:44;50.88;;;20.75;;
20095;SDS011;10207;50.942;6.900;2023-11-21T04:26:09;35.97;;;19.83;;
20095;SDS011;10207;50.942;6.900;2023-11-21T04:28:35;44.13;;;20.58;;
20095;SDS011;10207;50.942;6.900;2023-11-21T04:31:01;38.38;;;20.05;;
20095;SDS011;10207;50.942;6.900;2023-11-21T04:33:27;43.28;;;20.88;;
20095;SDS011;10207;50.942;6.900;2023-11-21T04:35:54;44.50;;;21.67;;
20095;SDS011;10207;50.942;6.900;2023-11-21T04:38:20;38.83;;;21.52;;
20095;SDS011;10207;50.942;6.900;2023-11-21T04:40:46;42.08;;;22.05;;
20095;SDS011;10207;50.942;6.900;2023-11-21T04:43:12;40.22;;;20.63;;
20095;SDS011;10207;50.942;6.900;2023-11-21T04:45:38;36.75;;;20.05;;
20095;SDS011;10207;50.942;6.900;2023-11-21T04:48:04;41.45;;;19.42;;
20095;SDS011;10207;50.942;6.900;2023-11-21T04:50:31;39.22;;;20.58;;
20095;SDS011;10207;50.942;6.900;2023-11-21T04:52:57;44.22;;;21.02;;
20095;SDS011;10207;50.942;6.900;2023-11-21T04:55:22;37.40;;;19.52;;
20095;SDS011;10207;50.942;6.900;2023-11-21T04:57:48;37.60;;;19.45;;
20095;SDS011;10207;50.942;6.900;2023-11-21T05:00:14;35.10;;;18.48;;
20095;SDS011;10207;50.942;6.900;2023-11-21T05:02:41;36.05;;;18.08;;
20095;SDS011;10207;50.942;6.900;2023-11-21T05:05:07;43.20;;;18.58;;
20095;SDS011;10207;50.942;6.900;2023-11-21T05:07:35;40.53;;;19.63;;
20095;SDS011;10207;50.942;6.900;2023-11-21T05:10:01;41.10;;;19.00;;
20095;SDS011;10207;50.942;6.900;2023-11-21T05:12:30;37.50;;;17.92;;
20095;SDS011;10207;50.942;6.900;2023-11-21T05:14:58;40.92;;;18.50;;
20095;SDS011;10207;50.942;6.900;2023-11-21T05:17:24;39.78;;;18.27;;
20095;SDS011;10207;50.942;6.900;2023-11-21T05:19:50;40.60;;;19.40;;
20095;SDS011;10207;50.942;6.900;2023-11-21T05:22:16;39.95;;;19.10;;
20095;SDS011;10207;50.942;6.900;2023-11-21T05:24:42;41.88;;;19.10;;
20095;SDS011;10207;50.942;6.900;2023-11-21T05:27:07;47.70;;;19.70;;
20095;SDS011;10207;50.942;6.900;2023-11-21T05:29:35;35.42;;;17.70;;
20095;SDS011;10207;50.942;6.900;2023-11-21T05:32:01;37.63;;;18.55;;
20095;SDS011;10207;50.942;6.900;2023-11-21T05:34:26;44.00;;;20.45;;
20095;SDS011;10207;50.942;6.900;2023-11-21T05:36:52;42.88;;;19.63;;
20095;SDS011;10207;50.942;6.900;2023-11-21T05:39:19;47.00;;;18.98;;
20095;SDS011;10207;50.942;6.900;2023-11-21T05:41:45;39.35;;;20.15;;
20095;SDS011;10207;50.942;6.900;2023-11-21T05:44:11;49.42;;;19.35;;
20095;SDS011;10207;50.942;6.900;2023-11-21T05:46:37;50.92;;;20.00;;
20095;SDS011;10207;50.942;6.900;2023-11-21T05:49:03;43.58;;;19.38;;
20095;SDS011;10207;50.942;6.900;2023-11-21T05:51:29;46.25;;;18.83;;
20095;SDS011;10207;50.942;6.900;2023-11-21T05:53:55;50.88;;;21.58;;
20095;SDS011;10207;50.942;6.900;2023-11-21T05:56:21;49.40;;;19.55;;
20095;SDS011;10207;50.942;6.900;2023-11-21T05:58:47;46.90;;;18.90;;
20095;SDS011;10207;50.942;6.900;2023-11-21T06:01:13;53.28;;;21.58;;
20095;SDS011;10207;50.942;6.900;2023-11-21T06:03:38;48.00;;;18.55;;
20095;SDS011;10207;50.942;6.900;2023-11-21T06:06:04;58.75;;;22.27;;
20095;SDS011;10207;50.942;6.900;2023-11-21T06:08:30;47.55;;;19.45;;
20095;SDS011;10207;50.942;6.900;2023-11-21T06:10:56;44.50;;;18.23;;
20095;SDS011;10207;50.942;6.900;2023-11-21T06:13:22;54.45;;;20.13;;
20095;SDS011;10207;50.942;6.900;2023-11-21T06:15:50;57.45;;;21.80;;
20095;SDS011;10207;50.942;6.900;2023-11-21T06:18:16;47.35;;;19.63;;
20095;SDS011;10207;50.942;6.900;2023-11-21T06:20:45;53.35;;;20.17;;
20095;SDS011;10207;50.942;6.900;2023-11-21T06:23:11;44.40;;;18.65;;
20095;SDS011;10207;50.942;6.900;2023-11-21T06:25:37;48.20;;;20.77;;
20095;SDS011;10207;50.942;6.900;2023-11-21T06:28:03;51.03;;;21.02;;
20095;SDS011;10207;50.942;6.900;2023-11-21T06:30:29;53.70;;;22.63;;
20095;SDS011;10207;50.942;6.900;2023-11-21T06:32:55;49.20;;;20.52;;
20095;SDS011;10207;50.942;6.900;2023-11-21T06:35:21;44.35;;;20.35;;
20095;SDS011;10207;50.942;6.900;2023-11-21T06:37:47;57.63;;;22.73;;
20095;SDS011;10207;50.942;6.900;2023-11-21T06:40:13;52.03;;;21.58;;
20095;SDS011;10207;50.942;6.900;2023-11-21T06:42:40;46.22;;;20.58;;
20095;SDS011;10207;50.942;6.900;2023-11-21T06:45:07;54.38;;;22.73;;
20095;SDS011;10207;50.942;6.900;2023-11-21T06:47:33;58.53;;;22.67;;
20095;SDS011;10207;50.942;6.900;2023-11-21T06:49:59;57.38;;;23.95;;
20095;SDS011;10207;50.942;6.900;2023-11-21T06:52:26;67.38;;;24.30;;
20095;SDS011;10207;50.942;6.900;2023-11-21T06:54:51;60.83;;;22.63;;
20095;SDS011;10207;50.942;6.900;2023-11-21T06:57:17;63.38;;;23.42;;
20095;SDS011;10207;50.942;6.900;2023-11-21T06:59:43;69.28;;;24.23;;
20095;SDS011;10207;50.942;6.900;2023-11-21T07:02:09;56.45;;;22.08;;
20095;SDS011;10207;50.942;6.900;2023-11-21T07:04:35;58.85;;;22.92;;
20095;SDS011;10207;50.942;6.900;2023-11-21T07:07:04;64.32;;;24.50;;
20095;SDS011;10207;50.942;6.900;2023-11-21T07:09:32;50.92;;;23.05;;
20095;SDS011;10207;50.942;6.900;2023-11-21T07:11:58;63.85;;;23.60;;
20095;SDS011;10207;50.942;6.900;2023-11-21T07:14:24;55.75;;;22.27;;
20095;SDS011;10207;50.942;6.900;2023-11-21T07:16:50;67.32;;;24.30;;
20095;SDS011;10207;50.942;6.900;2023-11-21T07:19:17;65.45;;;25.27;;
20095;SDS011;10207;50.942;6.900;2023-11-21T07:21:42;68.03;;;25.40;;
20095;SDS011;10207;50.942;6.900;2023-11-21T07:24:08;72.57;;;27.13;;
20095;SDS011;10207;50.942;6.900;2023-11-21T07:26:35;80.38;;;31.30;;
20095;SDS011;10207;50.942;6.900;2023-11-21T07:29:01;72.38;;;28.38;;
20095;SDS011;10207;50.942;6.900;2023-11-21T07:31:28;75.50;;;33.00;;
20095;SDS011;10207;50.942;6.900;2023-11-21T07:33:54;70.43;;;28.75;;
20095;SDS011;10207;50.942;6.900;2023-11-21T07:36:23;69.35;;;27.48;;
20095;SDS011;10207;50.942;6.900;2023-11-21T07:38:49;63.85;;;28.30;;
20095;SDS011;10207;50.942;6.900;2023-11-21T07:41:15;63.30;;;25.33;;
20095;SDS011;10207;50.942;6.900;2023-11-21T07:43:44;59.40;;;24.75;;
20095;SDS011;10207;50.942;6.900;2023-11-21T07:46:11;55.15;;;24.08;;
20095;SDS011;10207;50.942;6.900;2023-11-21T07:48:38;57.83;;;24.88;;
20095;SDS011;10207;50.942;6.900;2023-11-21T07:51:04;49.78;;;24.98;;
20095;SDS011;10207;50.942;6.900;2023-11-21T07:53:30;51.85;;;24.73;;
20095;SDS011;10207;50.942;6.900;2023-11-21T07:55:56;45.30;;;23.38;;
20095;SDS011;10207;50.942;6.900;2023-11-21T07:58:22;49.95;;;23.23;;
20095;SDS011;10207;50.942;6.900;2023-11-21T08:00:49;46.65;;;22.98;;
20095;SDS011;10207;50.942;6.900;2023-11-21T08:03:16;42.97;;;22.35;;
20095;SDS011;10207;50.942;6.900;2023-11-21T08:05:42;42.97;;;23.05;;
20095;SDS011;10207;50.942;6.900;2023-11-21T08:08:08;46.15;;;22.92;;
20095;SDS011;10207;50.942;6.900;2023-11-21T08:10:34;41.55;;;22.38;;
20095;SDS011;10207;50.942;6.900;2023-11-21T08:13:02;42.28;;;23.23;;
20095;SDS011;10207;50.942;6.900;2023-11-21T08:15:29;37.55;;;21.00;;
20095;SDS011;10207;50.942;6.900;2023-11-21T08:17:56;40.80;;;22.48;;
20095;SDS011;10207;50.942;6.900;2023-11-21T08:20:22;36.60;;;22.50;;
20095;SDS011;10207;50.942;6.900;2023-11-21T08:22:48;42.22;;;22.92;;
20095;SDS011;10207;50.942;6.900;2023-11-21T08:25:14;40.70;;;21.92;;
20095;SDS011;10207;50.942;6.900;2023-11-21T08:27:40;37.55;;;21.80;;
20095;SDS011;10207;50.942;6.900;2023-11-21T08:30:06;44.47;;;21.90;;
20095;SDS011;10207;50.942;6.900;2023-11-21T08:32:32;43.20;;;22.85;;
20095;SDS011;10207;50.942;6.900;2023-11-21T08:35:00;43.30;;;22.77;;
20095;SDS011;10207;50.942;6.900;2023-11-21T08:37:27;44.42;;;22.55;;
20095;SDS011;10207;50.942;6.900;2023-11-21T08:39:53;42.80;;;22.77;;
20095;SDS011;10207;50.942;6.900;2023-11-21T08:42:19;43.53;;;22.25;;
20095;SDS011;10207;50.942;6.900;2023-11-21T08:44:45;41.13;;;22.80;;
20095;SDS011;10207;50.942;6.900;2023-11-21T08:47:21;45.85;;;23.85;;
20095;SDS011;10207;50.942;6.900;2023-11-21T08:50:32;41.97;;;23.38;;
20095;SDS011;10207;50.942;6.900;2023-11-21T08:52:58;44.80;;;22.33;;
20095;SDS011;10207;50.942;6.900;2023-11-21T08:55:24;50.25;;;23.80;;
20095;SDS011;10207;50.942;6.900;2023-11-21T08:57:50;40.35;;;23.17;;
20095;SDS011;10207;50.942;6.900;2023-11-21T09:00:16;47.53;;;23.80;;
20095;SDS011;10207;50.942;6.900;2023-11-21T09:02:45;49.80;;;23.60;;
20095;SDS011;10207;50.942;6.900;2023-11-21T09:05:11;41.65;;;23.60;;
20095;SDS011;10207;50.942;6.900;2023-11-21T09:07:38;43.72;;;22.20;;
20095;SDS011;10207;50.942;6.900;2023-11-21T09:10:04;42.22;;;21.17;;
20095;SDS011;10207;50.942;6.900;2023-11-21T09:12:33;42.35;;;22.63;;
20095;SDS011;10207;50.942;6.900;2023-11-21T09:15:01;40.28;;;22.13;;
20095;SDS011;10207;50.942;6.900;2023-11-21T09:17:27;38.15;;;21.70;;
20095;SDS011;10207;50.942;6.900;2023-11-21T09:19:53;40.75;;;22.08;;
20095;SDS011;10207;50.942;6.900;2023-11-21T09:22:19;47.13;;;22.63;;
20095;SDS011;10207;50.942;6.900;2023-11-21T09:24:45;39.15;;;21.55;;
20095;SDS011;10207;50.942;6.900;2023-11-21T09:27:11;38.05;;;21.95;;
20095;SDS011;10207;50.942;6.900;2023-11-21T09:29:37;41.67;;;20.75;;
20095;SDS011;10207;50.942;6.900;2023-11-21T09:32:04;36.55;;;20.52;;
20095;SDS011;10207;50.942;6.900;2023-11-21T09:34:34;41.42;;;21.35;;
20095;SDS011;10207;50.942;6.900;2023-11-21T09:37:04;40.70;;;22.60;;
20095;SDS011;10207;50.942;6.900;2023-11-21T09:39:32;42.35;;;21.63;;
20095;SDS011;10207;50.942;6.900;2023-11-21T09:42:10;39.08;;;21.13;;
20095;SDS011;10207;50.942;6.900;2023-11-21T09:47:39;41.78;;;21.67;;
20095;SDS011;10207;50.942;6.900;2023-11-21T09:50:05;46.60;;;22.77;;
20095;SDS011;10207;50.942;6.900;2023-11-21T09:52:37;42.75;;;22.02;;
20095;SDS011;10207;50.942;6.900;2023-11-21T09:55:07;39.90;;;19.90;;
20095;SDS011;10207;50.942;6.900;2023-11-21T09:57:33;40.85;;;21.70;;
20095;SDS011;10207;50.942;6.900;2023-11-21T09:59:59;37.35;;;20.25;;
20095;SDS011;10207;50.942;6.900;2023-11-21T10:02:32;33.67;;;18.60;;
20095;SDS011;10207;50.942;6.900;2023-11-21T10:05:00;35.38;;;18.45;;
20095;SDS011;10207;50.942;6.900;2023-11-21T10:07:26;33.75;;;18.38;;
20095;SDS011;10207;50.942;6.900;2023-11-21T10:09:52;33.72;;;16.27;;
20095;SDS011;10207;50.942;6.900;2023-11-21T10:12:18;32.83;;;15.82;;
20095;SDS011;10207;50.942;6.900;2023-11-21T10:14:50;26.85;;;15.45;;
20095;SDS011;10207;50.942;6.900;2023-11-21T10:17:18;34.70;;;16.45;;
20095;SDS011;10207;50.942;6.900;2023-11-21T10:19:48;32.03;;;17.30;;
20095;SDS011;10207;50.942;6.900;2023-11-21T10:22:17;34.83;;;16.50;;
20095;SDS011;10207;50.942;6.900;2023-11-21T10:24:43;39.13;;;17.08;;
20095;SDS011;10207;50.942;6.900;2023-11-21T10:27:09;32.55;;;16.85;;
20095;SDS011;10207;50.942;6.900;2023-11-21T10:29:35;36.83;;;17.60;;
20095;SDS011;10207;50.942;6.900;2023-11-21T10:32:01;40.95;;;19.40;;
20095;SDS011;10207;50.942;6.900;2023-11-21T10:34:27;41.45;;;20.58;;
20095;SDS011;10207;50.942;6.900;2023-11-21T10:36:53;40.50;;;19.92;;
20095;SDS011;10207;50.942;6.900;2023-11-21T10:39:19;45.50;;;19.80;;
20095;SDS011;10207;50.942;6.900;2023-11-21T10:41:48;43.60;;;19.33;;
20095;SDS011;10207;50.942;6.900;2023-11-21T10:44:17;42.33;;;19.20;;
20095;SDS011;10207;50.942;6.900;2023-11-21T10:46:46;38.75;;;18.50;;
20095;SDS011;10207;50.942;6.900;2023-11-21T10:49:19;36.88;;;20.05;;
20095;SDS011;10207;50.942;6.900;2023-11-21T10:51:45;38.03;;;17.50;;
20095;SDS011;10207;50.942;6.900;2023-11-21T10:54:11;38.90;;;17.70;;
20095;SDS011;10207;50.942;6.900;2023-11-21T10:56:38;52.15;;;19.27;;
20095;SDS011;10207;50.942;6.900;2023-11-21T10:59:08;33.90;;;17.38;;
20095;SDS011;10207;50.942;6.900;2023-11-21T11:01:35;38.47;;;17.35;;
20095;SDS011;10207;50.942;6.900;2023-11-21T11:04:01;42.47;;;19.33;;
20095;SDS011;10207;50.942;6.900;2023-11-21T11:06:29;35.38;;;17.42;;
20095;SDS011;10207;50.942;6.900;2023-11-21T11:08:58;40.30;;;19.05;;
20095;SDS011;10207;50.942;6.900;2023-11-21T11:11:25;40.83;;;17.88;;
20095;SDS011;10207;50.942;6.900;2023-11-21T11:13:51;40.85;;;18.70;;
20095;SDS011;10207;50.942;6.900;2023-11-21T11:16:17;41.13;;;18.02;;
20095;SDS011;10207;50.942;6.900;2023-11-21T11:18:43;44.65;;;18.17;;
20095;SDS011;10207;50.942;6.900;2023-11-21T11:21:13;44.03;;;18.20;;
20095;SDS011;10207;50.942;6.900;2023-11-21T11:24:31;34.90;;;17.35;;
20095;SDS011;10207;50.942;6.900;2023-11-21T11:26:46;45.10;;;20.15;;
20095;SDS011;10207;50.942;6.900;2023-11-21T11:31:51;41.25;;;18.88;;
20095;SDS011;10207;50.942;6.900;2023-11-21T11:34:23;37.00;;;18.30;;
20095;SDS011;10207;50.942;6.900;2023-11-21T11:36:54;36.90;;;17.45;;
20095;SDS011;10207;50.942;6.900;2023-11-21T11:39:36;47.42;;;18.88;;
20095;SDS011;10207;50.942;6.900;2023-11-21T11:42:02;36.53;;;17.23;;
20095;SDS011;10207;50.942;6.900;2023-11-21T11:47:24;34.78;;;15.65;;
20095;SDS011;10207;50.942;6.900;2023-11-21T11:55:06;27.30;;;12.95;;
20095;SDS011;10207;50.942;6.900;2023-11-21T11:57:32;36.88;;;16.58;;
20095;SDS011;10207;50.942;6.900;2023-11-21T12:02:49;27.23;;;12.77;;
20095;SDS011;10207;50.942;6.900;2023-11-21T12:05:16;31.75;;;13.25;;
20095;SDS011;10207;50.942;6.900;2023-11-21T12:07:44;25.83;;;12.25;;
20095;SDS011;10207;50.942;6.900;2023-11-21T12:10:12;27.83;;;13.25;;
20095;SDS011;10207;50.942;6.900;2023-11-21T12:12:59;34.60;;;13.93;;
20095;SDS011;10207;50.942;6.900;2023-11-21T12:15:25;31.20;;;13.38;;
20095;SDS011;10207;50.942;6.900;2023-11-21T12:17:51;31.27;;;14.38;;
20095;SDS011;10207;50.942;6.900;2023-11-21T12:20:21;40.83;;;15.27;;
20095;SDS011;10207;50.942;6.900;2023-11-21T12:22:48;29.73;;;13.35;;
20095;SDS011;10207;50.942;6.900;2023-11-21T12:25:15;31.67;;;14.15;;
20095;SDS011;10207;50.942;6.900;2023-11-21T12:27:52;33.63;;;13.75;;
20095;SDS011;10207;50.942;6.900;2023-11-21T12:30:20;26.92;;;14.10;;
20095;SDS011;10207;50.942;6.900;2023-11-21T12:32:48;23.75;;;11.85;;
20095;SDS011;10207;50.942;6.900;2023-11-21T12:35:14;25.17;;;12.00;;
20095;SDS011;10207;50.942;6.900;2023-11-21T12:37:41;33.13;;;13.40;;
20095;SDS011;10207;50.942;6.900;2023-11-21T12:40:10;24.52;;;12.13;;
20095;SDS011;10207;50.942;6.900;2023-11-21T12:42:38;29.33;;;13.35;;
20095;SDS011;10207;50.942;6.900;2023-11-21T12:45:08;29.88;;;13.55;;
20095;SDS011;10207;50.942;6.900;2023-11-21T12:47:34;29.08;;;13.57;;
20095;SDS011;10207;50.942;6.900;2023-11-21T12:50:02;27.45;;;14.50;;
20095;SDS011;10207;50.942;6.900;2023-11-21T12:52:28;25.02;;;14.13;;
20095;SDS011;10207;50.942;6.900;2023-11-21T12:54:54;30.05;;;14.93;;
20095;SDS011;10207;50.942;6.900;2023-11-21T12:57:25;28.40;;;13.20;;
20095;SDS011;10207;50.942;6.900;2023-11-21T12:59:56;43.60;;;19.10;;
20095;SDS011;10207;50.942;6.900;2023-11-21T13:02:25;35.50;;;18.23;;
20095;SDS011;10207;50.942;6.900;2023-11-21T13:04:51;38.45;;;17.73;;
20095;SDS011;10207;50.942;6.900;2023-11-21T13:07:18;47.53;;;21.15;;
20095;SDS011;10207;50.942;6.900;2023-11-21T13:09:45;45.92;;;21.23;;
20095;SDS011;10207;50.942;6.900;2023-11-21T13:12:11;39.05;;;19.90;;
20095;SDS011;10207;50.942;6.900;2023-11-21T13:14:39;40.72;;;20.85;;
20095;SDS011;10207;50.942;6.900;2023-11-21T13:17:05;45.10;;;21.00;;
20095;SDS011;10207;50.942;6.900;2023-11-21T13:19:31;43.10;;;18.73;;
20095;SDS011;10207;50.942;6.900;2023-11-21T13:21:57;38.63;;;19.75;;
20095;SDS011;10207;50.942;6.900;2023-11-21T13:24:24;34.72;;;19.23;;
20095;SDS011;10207;50.942;6.900;2023-11-21T13:26:50;39.63;;;19.08;;
20095;SDS011;10207;50.942;6.900;2023-11-21T13:29:16;41.55;;;19.05;;
20095;SDS011;10207;50.942;6.900;2023-11-21T13:31:42;50.28;;;20.13;;
20095;SDS011;10207;50.942;6.900;2023-11-21T13:34:08;41.67;;;19.77;;
20095;SDS011;10207;50.942;6.900;2023-11-21T13:36:34;44.47;;;20.77;;
20095;SDS011;10207;50.942;6.900;2023-11-21T13:39:00;41.13;;;19.92;;
20095;SDS011;10207;50.942;6.900;2023-11-21T13:41:33;46.33;;;21.50;;
20095;SDS011;10207;50.942;6.900;2023-11-21T13:43:59;47.15;;;22.48;;
20095;SDS011;10207;50.942;6.900;2023-11-21T13:46:41;40.95;;;19.33;;
20095;SDS011;10207;50.942;6.900;2023-11-21T13:49:07;42.75;;;20.58;;
20095;SDS011;10207;50.942;6.900;2023-11-21T13:51:36;41.60;;;19.27;;
20095;SDS011;10207;50.942;6.900;2023-11-21T13:54:07;42.03;;;20.15;;
20095;SDS011;10207;50.942;6.900;2023-11-21T13:56:35;45.50;;;22.23;;
20095;SDS011;10207;50.942;6.900;2023-11-21T13:59:01;43.13;;;20.83;;
20095;SDS011;10207;50.942;6.900;2023-11-21T14:01:37;40.00;;;19.02;;
20095;SDS011;10207;50.942;6.900;2023-11-21T14:04:29;39.72;;;19.30;;
20095;SDS011;10207;50.942;6.900;2023-11-21T14:07:15;37.33;;;17.42;;
20095;SDS011;10207;50.942;6.900;2023-11-21T14:10:10;37.20;;;18.33;;
20095;SDS011;10207;50.942;6.900;2023-11-21T14:12:39;40.05;;;16.88;;
20095;SDS011;10207;50.942;6.900;2023-11-21T14:15:08;39.38;;;16.90;;
20095;SDS011;10207;50.942;6.900;2023-11-21T14:17:35;37.88;;;16.25;;
20095;SDS011;10207;50.942;6.900;2023-11-21T14:20:03;38.17;;;17.33;;
20095;SDS011;10207;50.942;6.900;2023-11-21T14:22:30;32.47;;;16.10;;
20095;SDS011;10207;50.942;6.900;2023-11-21T14:24:56;33.25;;;15.07;;
20095;SDS011;10207;50.942;6.900;2023-11-21T14:27:25;31.77;;;14.88;;
20095;SDS011;10207;50.942;6.900;2023-11-21T14:29:51;41.10;;;16.92;;
20095;SDS011;10207;50.942;6.900;2023-11-21T14:32:18;32.85;;;14.73;;
20095;SDS011;10207;50.942;6.900;2023-11-21T14:34:44;30.92;;;15.77;;
20095;SDS011;10207;50.942;6.900;2023-11-21T14:37:12;35.08;;;16.48;;
20095;SDS011;10207;50.942;6.900;2023-11-21T14:39:39;30.30;;;14.68;;